sensor_id;sensor_type;location;lat;lon;timestamp;temperature;humidity
2030;DHT22;1020;48.854;8.830;2023-02-02T00:01:22;4.90;99.90
2030;DHT22;1020;48.854;8.830;2023-02-02T00:03:49;4.90;99.90
2030;DHT22;1020;48.854;8.830;2023-02-02T00:06:16;4.90;99.90
2030;DHT22;1020;48.854;8.830;2023-02-02T00:08:43;4.90;99.90
2030;DHT22;1020;48.854;8.830;2023-02-02T00:11:11;4.90;99.90
2030;DHT22;1020;48.854;8.830;2023-02-02T00:13:38;4.90;99.90
2030;DHT22;1020;48.854;8.830;2023-02-02T00:16:40;4.80;99.90
2030;DHT22;1020;48.854;8.830;2023-02-02T00:19:09;4.90;99.90
2030;DHT22;1020;48.854;8.830;2023-02-02T00:21:37;4.90;1.00
2030;DHT22;1020;48.854;8.830;2023-02-02T00:24:04;4.10;99.90
2030;DHT22;1020;48.854;8.830;2023-02-02T00:26:33;4.80;1.00
2030;DHT22;1020;48.854;8.830;2023-02-02T00:29:01;4.80;99.90
2030;DHT22;1020;48.854;8.830;2023-02-02T00:31:27;4.80;99.90
2030;DHT22;1020;48.854;8.830;2023-02-02T00:33:54;4.70;1.00
2030;DHT22;1020;48.854;8.830;2023-02-02T00:36:21;4.70;1.00
2030;DHT22;1020;48.854;8.830;2023-02-02T00:38:49;4.70;99.90
2030;DHT22;1020;48.854;8.830;2023-02-02T00:41:17;4.70;99.90
2030;DHT22;1020;48.854;8.830;2023-02-02T00:43:46;4.70;99.90
2030;DHT22;1020;48.854;8.830;2023-02-02T00:46:32;4.70;99.90
2030;DHT22;1020;48.854;8.830;2023-02-02T00:48:58;4.70;99.90
2030;DHT22;1020;48.854;8.830;2023-02-02T00:51:25;4.70;1.00
2030;DHT22;1020;48.854;8.830;2023-02-02T00:53:52;4.70;2.80
2030;DHT22;1020;48.854;8.830;2023-02-02T00:56:19;4.70;1.00
2030;DHT22;1020;48.854;8.830;2023-02-02T00:58:47;4.70;1.00
2030;DHT22;1020;48.854;8.830;2023-02-02T01:01:15;4.70;99.90
2030;DHT22;1020;48.854;8.830;2023-02-02T01:03:42;4.60;99.90
2030;DHT22;1020;48.854;8.830;2023-02-02T01:06:09;4.60;1.00
2030;DHT22;1020;48.854;8.830;2023-02-02T01:08:36;4.50;1.00
2030;DHT22;1020;48.854;8.830;2023-02-02T01:11:03;4.40;1.00
2030;DHT22;1020;48.854;8.830;2023-02-02T01:13:29;4.40;38.10
2030;DHT22;1020;48.854;8.830;2023-02-02T01:15:59;4.40;75.20
2030;DHT22;1020;48.854;8.830;2023-02-02T01:18:27;4.40;99.90
2030;DHT22;1020;48.854;8.830;2023-02-02T01:20:56;4.40;99.90
2030;DHT22;1020;48.854;8.830;2023-02-02T01:23:23;4.30;99.90
2030;DHT22;1020;48.854;8.830;2023-02-02T01:25:52;4.30;99.90
2030;DHT22;1020;48.854;8.830;2023-02-02T01:28:19;4.30;99.90
2030;DHT22;1020;48.854;8.830;2023-02-02T01:30:46;4.30;99.90
2030;DHT22;1020;48.854;8.830;2023-02-02T01:33:14;4.30;99.90
2030;DHT22;1020;48.854;8.830;2023-02-02T01:35:45;4.40;99.90
2030;DHT22;1020;48.854;8.830;2023-02-02T01:38:12;4.40;99.90
2030;DHT22;1020;48.854;8.830;2023-02-02T01:40:44;4.40;99.90
2030;DHT22;1020;48.854;8.830;2023-02-02T01:43:23;4.40;98.30
2030;DHT22;1020;48.854;8.830;2023-02-02T01:45:51;4.50;91.90
2030;DHT22;1020;48.854;8.830;2023-02-02T01:48:20;4.50;79.00
2030;DHT22;1020;48.854;8.830;2023-02-02T01:50:49;4.50;65.60
2030;DHT22;1020;48.854;8.830;2023-02-02T01:53:19;4.50;44.00
2030;DHT22;1020;48.854;8.830;2023-02-02T01:55:47;4.60;27.10
2030;DHT22;1020;48.854;8.830;2023-02-02T01:58:18;4.60;23.90
2030;DHT22;1020;48.854;8.830;2023-02-02T02:00:45;4.60;24.50
2030;DHT22;1020;48.854;8.830;2023-02-02T02:03:15;4.60;21.70
2030;DHT22;1020;48.854;8.830;2023-02-02T02:05:47;4.60;9.90
2030;DHT22;1020;48.854;8.830;2023-02-02T02:08:19;4.70;4.70
2030;DHT22;1020;48.854;8.830;2023-02-02T02:10:46;4.70;2.70
2030;DHT22;1020;48.854;8.830;2023-02-02T02:13:13;4.60;17.50
2030;DHT22;1020;48.854;8.830;2023-02-02T02:15:45;4.60;25.00
2030;DHT22;1020;48.854;8.830;2023-02-02T02:18:50;4.60;24.80
2030;DHT22;1020;48.854;8.830;2023-02-02T02:21:37;4.60;42.80
2030;DHT22;1020;48.854;8.830;2023-02-02T02:24:45;4.50;44.10
2030;DHT22;1020;48.854;8.830;2023-02-02T02:27:52;4.50;53.50
2030;DHT22;1020;48.854;8.830;2023-02-02T02:33:36;4.50;56.60
2030;DHT22;1020;48.854;8.830;2023-02-02T02:36:11;4.50;60.90
2030;DHT22;1020;48.854;8.830;2023-02-02T02:38:48;4.60;50.80
2030;DHT22;1020;48.854;8.830;2023-02-02T02:41:19;4.60;58.30
2030;DHT22;1020;48.854;8.830;2023-02-02T02:43:51;4.60;60.60
2030;DHT22;1020;48.854;8.830;2023-02-02T02:46:21;4.60;59.50
2030;DHT22;1020;48.854;8.830;2023-02-02T02:48:49;4.60;51.70
2030;DHT22;1020;48.854;8.830;2023-02-02T02:51:40;4.60;47.40
2030;DHT22;1020;48.854;8.830;2023-02-02T02:54:07;4.60;42.40
2030;DHT22;1020;48.854;8.830;2023-02-02T02:56:44;4.60;29.60
2030;DHT22;1020;48.854;8.830;2023-02-02T02:59:24;4.70;16.70
2030;DHT22;1020;48.854;8.830;2023-02-02T03:02:03;4.70;9.60
2030;DHT22;1020;48.854;8.830;2023-02-02T03:04:39;4.70;7.60
2030;DHT22;1020;48.854;8.830;2023-02-02T03:07:17;4.70;1.00
2030;DHT22;1020;48.854;8.830;2023-02-02T03:09:48;4.70;1.00
2030;DHT22;1020;48.854;8.830;2023-02-02T03:12:16;4.70;1.00
2030;DHT22;1020;48.854;8.830;2023-02-02T03:14:43;4.70;1.00
2030;DHT22;1020;48.854;8.830;2023-02-02T03:17:10;4.70;1.00
2030;DHT22;1020;48.854;8.830;2023-02-02T03:19:38;4.80;1.00
2030;DHT22;1020;48.854;8.830;2023-02-02T03:22:05;4.80;1.00
2030;DHT22;1020;48.854;8.830;2023-02-02T03:24:31;4.80;1.00
2030;DHT22;1020;48.854;8.830;2023-02-02T03:26:58;4.80;1.00
2030;DHT22;1020;48.854;8.830;2023-02-02T03:29:25;4.80;1.00
2030;DHT22;1020;48.854;8.830;2023-02-02T03:31:52;4.80;1.00
2030;DHT22;1020;48.854;8.830;2023-02-02T03:34:19;4.80;1.00
2030;DHT22;1020;48.854;8.830;2023-02-02T03:36:47;4.70;1.00
2030;DHT22;1020;48.854;8.830;2023-02-02T03:39:14;4.80;1.00
2030;DHT22;1020;48.854;8.830;2023-02-02T03:41:40;4.70;1.00
2030;DHT22;1020;48.854;8.830;2023-02-02T03:44:07;4.70;1.00
2030;DHT22;1020;48.854;8.830;2023-02-02T03:46:34;4.80;1.00
2030;DHT22;1020;48.854;8.830;2023-02-02T03:49:00;4.80;1.00
2030;DHT22;1020;48.854;8.830;2023-02-02T03:51:27;4.80;1.00
2030;DHT22;1020;48.854;8.830;2023-02-02T03:53:55;4.80;1.00
2030;DHT22;1020;48.854;8.830;2023-02-02T03:56:22;4.80;1.00
2030;DHT22;1020;48.854;8.830;2023-02-02T03:58:49;4.80;1.00
2030;DHT22;1020;48.854;8.830;2023-02-02T04:01:15;4.80;1.00
2030;DHT22;1020;48.854;8.830;2023-02-02T04:03:42;4.80;1.00
2030;DHT22;1020;48.854;8.830;2023-02-02T04:06:10;4.80;1.00
2030;DHT22;1020;48.854;8.830;2023-02-02T04:08:37;4.80;1.00
2030;DHT22;1020;48.854;8.830;2023-02-02T04:11:08;4.80;1.00
2030;DHT22;1020;48.854;8.830;2023-02-02T04:13:35;4.80;1.00
2030;DHT22;1020;48.854;8.830;2023-02-02T04:16:02;4.80;1.00
2030;DHT22;1020;48.854;8.830;2023-02-02T04:18:28;4.80;1.00
2030;DHT22;1020;48.854;8.830;2023-02-02T04:20:56;4.80;1.00
2030;DHT22;1020;48.854;8.830;2023-02-02T04:23:24;4.80;1.00
2030;DHT22;1020;48.854;8.830;2023-02-02T04:25:51;4.80;1.00
2030;DHT22;1020;48.854;8.830;2023-02-02T04:28:19;4.90;1.00
2030;DHT22;1020;48.854;8.830;2023-02-02T04:30:47;4.90;1.00
2030;DHT22;1020;48.854;8.830;2023-02-02T04:33:13;4.90;1.00
2030;DHT22;1020;48.854;8.830;2023-02-02T04:35:41;4.90;1.00
2030;DHT22;1020;48.854;8.830;2023-02-02T04:38:09;4.90;1.00
2030;DHT22;1020;48.854;8.830;2023-02-02T04:40:37;4.90;1.00
2030;DHT22;1020;48.854;8.830;2023-02-02T04:43:04;4.90;1.00
2030;DHT22;1020;48.854;8.830;2023-02-02T04:45:32;4.90;1.00
2030;DHT22;1020;48.854;8.830;2023-02-02T04:47:58;4.90;1.00
2030;DHT22;1020;48.854;8.830;2023-02-02T04:50:26;4.90;1.00
2030;DHT22;1020;48.854;8.830;2023-02-02T04:52:52;4.90;1.00
2030;DHT22;1020;48.854;8.830;2023-02-02T04:55:19;4.90;1.00
2030;DHT22;1020;48.854;8.830;2023-02-02T04:57:46;4.90;1.00
2030;DHT22;1020;48.854;8.830;2023-02-02T05:00:14;4.90;1.00
2030;DHT22;1020;48.854;8.830;2023-02-02T05:02:42;4.90;1.00
2030;DHT22;1020;48.854;8.830;2023-02-02T05:05:11;4.90;1.00
2030;DHT22;1020;48.854;8.830;2023-02-02T05:07:38;4.90;1.00
2030;DHT22;1020;48.854;8.830;2023-02-02T05:10:06;4.90;1.00
2030;DHT22;1020;48.854;8.830;2023-02-02T05:12:33;5.00;1.00
2030;DHT22;1020;48.854;8.830;2023-02-02T05:15:00;5.00;1.00
2030;DHT22;1020;48.854;8.830;2023-02-02T05:17:27;5.00;1.00
2030;DHT22;1020;48.854;8.830;2023-02-02T05:19:56;5.00;1.00
2030;DHT22;1020;48.854;8.830;2023-02-02T05:22:22;5.00;1.00
2030;DHT22;1020;48.854;8.830;2023-02-02T05:24:49;5.00;1.00
2030;DHT22;1020;48.854;8.830;2023-02-02T05:27:16;5.00;1.00
2030;DHT22;1020;48.854;8.830;2023-02-02T05:29:42;5.00;1.00
2030;DHT22;1020;48.854;8.830;2023-02-02T05:32:09;5.10;1.00
2030;DHT22;1020;48.854;8.830;2023-02-02T05:34:36;5.10;1.00
2030;DHT22;1020;48.854;8.830;2023-02-02T05:37:04;5.00;1.00
2030;DHT22;1020;48.854;8.830;2023-02-02T05:39:31;5.00;1.00
2030;DHT22;1020;48.854;8.830;2023-02-02T05:41:57;5.00;1.00
2030;DHT22;1020;48.854;8.830;2023-02-02T05:44:24;5.00;1.00
2030;DHT22;1020;48.854;8.830;2023-02-02T05:46:51;5.00;1.00
2030;DHT22;1020;48.854;8.830;2023-02-02T05:49:18;5.00;1.00
2030;DHT22;1020;48.854;8.830;2023-02-02T05:51:46;5.00;1.00
2030;DHT22;1020;48.854;8.830;2023-02-02T05:54:15;5.10;1.00
2030;DHT22;1020;48.854;8.830;2023-02-02T05:56:45;5.00;1.00
2030;DHT22;1020;48.854;8.830;2023-02-02T05:59:11;5.00;1.00
2030;DHT22;1020;48.854;8.830;2023-02-02T06:01:38;5.00;1.00
2030;DHT22;1020;48.854;8.830;2023-02-02T06:04:05;5.00;1.00
2030;DHT22;1020;48.854;8.830;2023-02-02T06:06:32;5.00;1.00
2030;DHT22;1020;48.854;8.830;2023-02-02T06:09:00;5.00;1.00
2030;DHT22;1020;48.854;8.830;2023-02-02T06:11:28;5.00;1.00
2030;DHT22;1020;48.854;8.830;2023-02-02T06:13:55;5.00;1.00
2030;DHT22;1020;48.854;8.830;2023-02-02T06:16:22;5.00;1.00
2030;DHT22;1020;48.854;8.830;2023-02-02T06:18:49;5.00;1.00
2030;DHT22;1020;48.854;8.830;2023-02-02T06:21:16;5.00;1.00
2030;DHT22;1020;48.854;8.830;2023-02-02T06:23:44;5.00;1.00
2030;DHT22;1020;48.854;8.830;2023-02-02T06:26:11;4.90;1.00
2030;DHT22;1020;48.854;8.830;2023-02-02T06:28:39;5.00;1.00
2030;DHT22;1020;48.854;8.830;2023-02-02T06:31:08;5.00;1.00
2030;DHT22;1020;48.854;8.830;2023-02-02T06:33:35;5.00;1.00
2030;DHT22;1020;48.854;8.830;2023-02-02T06:36:04;4.90;1.00
2030;DHT22;1020;48.854;8.830;2023-02-02T06:38:31;4.90;1.00
2030;DHT22;1020;48.854;8.830;2023-02-02T06:40:58;4.90;1.00
2030;DHT22;1020;48.854;8.830;2023-02-02T06:43:25;4.90;1.00
2030;DHT22;1020;48.854;8.830;2023-02-02T06:45:53;4.90;1.00
2030;DHT22;1020;48.854;8.830;2023-02-02T06:48:22;4.90;1.00
2030;DHT22;1020;48.854;8.830;2023-02-02T06:50:49;4.90;1.00
2030;DHT22;1020;48.854;8.830;2023-02-02T06:53:15;4.90;1.00
2030;DHT22;1020;48.854;8.830;2023-02-02T06:55:51;4.90;1.00
2030;DHT22;1020;48.854;8.830;2023-02-02T06:58:18;4.90;1.00
2030;DHT22;1020;48.854;8.830;2023-02-02T07:00:45;4.90;1.00
2030;DHT22;1020;48.854;8.830;2023-02-02T07:03:13;4.90;1.00
2030;DHT22;1020;48.854;8.830;2023-02-02T07:05:40;4.90;1.00
2030;DHT22;1020;48.854;8.830;2023-02-02T07:08:07;4.90;1.00
2030;DHT22;1020;48.854;8.830;2023-02-02T07:10:35;4.90;1.00
2030;DHT22;1020;48.854;8.830;2023-02-02T07:13:02;4.90;1.00
2030;DHT22;1020;48.854;8.830;2023-02-02T07:15:30;4.90;1.00
2030;DHT22;1020;48.854;8.830;2023-02-02T07:17:57;4.90;1.00
2030;DHT22;1020;48.854;8.830;2023-02-02T07:20:25;4.90;1.00
2030;DHT22;1020;48.854;8.830;2023-02-02T07:22:52;4.90;1.00
2030;DHT22;1020;48.854;8.830;2023-02-02T07:25:19;5.00;1.00
2030;DHT22;1020;48.854;8.830;2023-02-02T07:27:45;4.90;1.00
2030;DHT22;1020;48.854;8.830;2023-02-02T07:30:13;5.00;1.00
2030;DHT22;1020;48.854;8.830;2023-02-02T07:32:45;5.00;1.00
2030;DHT22;1020;48.854;8.830;2023-02-02T07:35:12;5.00;1.00
2030;DHT22;1020;48.854;8.830;2023-02-02T07:37:41;5.00;1.00
2030;DHT22;1020;48.854;8.830;2023-02-02T07:40:10;5.00;1.00
2030;DHT22;1020;48.854;8.830;2023-02-02T07:42:36;5.00;1.00
2030;DHT22;1020;48.854;8.830;2023-02-02T07:45:04;5.00;1.00
2030;DHT22;1020;48.854;8.830;2023-02-02T07:47:31;5.00;1.00
2030;DHT22;1020;48.854;8.830;2023-02-02T07:49:58;5.10;1.00
2030;DHT22;1020;48.854;8.830;2023-02-02T07:52:24;5.10;1.00
2030;DHT22;1020;48.854;8.830;2023-02-02T07:54:52;5.10;1.00
2030;DHT22;1020;48.854;8.830;2023-02-02T07:57:20;5.20;1.00
2030;DHT22;1020;48.854;8.830;2023-02-02T07:59:47;5.20;1.00
2030;DHT22;1020;48.854;8.830;2023-02-02T08:02:14;5.30;1.00
2030;DHT22;1020;48.854;8.830;2023-02-02T08:04:41;5.30;99.90
2030;DHT22;1020;48.854;8.830;2023-02-02T08:07:08;5.30;99.90
2030;DHT22;1020;48.854;8.830;2023-02-02T08:09:35;5.20;99.90
2030;DHT22;1020;48.854;8.830;2023-02-02T08:12:03;5.30;99.90
2030;DHT22;1020;48.854;8.830;2023-02-02T08:14:30;5.30;99.90
2030;DHT22;1020;48.854;8.830;2023-02-02T08:16:57;5.30;99.90
2030;DHT22;1020;48.854;8.830;2023-02-02T08:19:24;5.30;99.90
2030;DHT22;1020;48.854;8.830;2023-02-02T08:21:51;5.40;99.90
2030;DHT22;1020;48.854;8.830;2023-02-02T08:24:18;5.40;99.90
2030;DHT22;1020;48.854;8.830;2023-02-02T08:26:44;5.40;99.90
2030;DHT22;1020;48.854;8.830;2023-02-02T08:29:12;5.40;99.90
2030;DHT22;1020;48.854;8.830;2023-02-02T08:31:43;5.40;99.90
2030;DHT22;1020;48.854;8.830;2023-02-02T08:34:10;5.40;99.90
2030;DHT22;1020;48.854;8.830;2023-02-02T08:36:38;5.40;99.90
2030;DHT22;1020;48.854;8.830;2023-02-02T08:39:09;5.40;99.90
2030;DHT22;1020;48.854;8.830;2023-02-02T08:41:36;5.30;99.90
2030;DHT22;1020;48.854;8.830;2023-02-02T08:44:05;5.30;1.00
2030;DHT22;1020;48.854;8.830;2023-02-02T08:46:33;5.30;1.00
2030;DHT22;1020;48.854;8.830;2023-02-02T08:49:00;5.30;1.00
2030;DHT22;1020;48.854;8.830;2023-02-02T08:51:27;5.20;1.00
2030;DHT22;1020;48.854;8.830;2023-02-02T08:53:53;5.20;1.00
2030;DHT22;1020;48.854;8.830;2023-02-02T08:56:21;5.20;1.00
2030;DHT22;1020;48.854;8.830;2023-02-02T08:58:49;5.20;1.00
2030;DHT22;1020;48.854;8.830;2023-02-02T09:01:18;5.20;1.00
2030;DHT22;1020;48.854;8.830;2023-02-02T09:03:47;5.20;1.00
2030;DHT22;1020;48.854;8.830;2023-02-02T09:06:16;5.20;1.00
2030;DHT22;1020;48.854;8.830;2023-02-02T09:08:44;5.20;1.00
2030;DHT22;1020;48.854;8.830;2023-02-02T09:11:12;5.20;1.00
2030;DHT22;1020;48.854;8.830;2023-02-02T09:13:41;5.20;1.00
2030;DHT22;1020;48.854;8.830;2023-02-02T09:16:20;5.20;1.00
2030;DHT22;1020;48.854;8.830;2023-02-02T09:18:49;5.20;1.00
2030;DHT22;1020;48.854;8.830;2023-02-02T09:21:17;5.20;1.00
2030;DHT22;1020;48.854;8.830;2023-02-02T09:23:45;5.30;1.00
2030;DHT22;1020;48.854;8.830;2023-02-02T09:26:14;5.20;1.00
2030;DHT22;1020;48.854;8.830;2023-02-02T09:28:42;5.20;1.00
2030;DHT22;1020;48.854;8.830;2023-02-02T09:31:10;5.30;1.00
2030;DHT22;1020;48.854;8.830;2023-02-02T09:33:37;5.20;1.00
2030;DHT22;1020;48.854;8.830;2023-02-02T09:36:07;5.20;1.00
2030;DHT22;1020;48.854;8.830;2023-02-02T09:38:34;3.40;1.00
2030;DHT22;1020;48.854;8.830;2023-02-02T09:41:14;5.20;1.00
2030;DHT22;1020;48.854;8.830;2023-02-02T09:43:49;5.20;1.00
2030;DHT22;1020;48.854;8.830;2023-02-02T09:46:20;5.20;1.00
2030;DHT22;1020;48.854;8.830;2023-02-02T09:48:55;5.20;1.00
2030;DHT22;1020;48.854;8.830;2023-02-02T09:51:27;5.20;1.00
2030;DHT22;1020;48.854;8.830;2023-02-02T09:53:58;5.20;1.00
2030;DHT22;1020;48.854;8.830;2023-02-02T09:56:31;5.20;1.00
2030;DHT22;1020;48.854;8.830;2023-02-02T09:59:00;5.30;1.00
2030;DHT22;1020;48.854;8.830;2023-02-02T10:01:30;5.30;1.00
2030;DHT22;1020;48.854;8.830;2023-02-02T10:04:02;5.30;1.00
2030;DHT22;1020;48.854;8.830;2023-02-02T10:06:36;5.30;1.00
2030;DHT22;1020;48.854;8.830;2023-02-02T10:09:15;5.30;1.00
2030;DHT22;1020;48.854;8.830;2023-02-02T10:11:49;5.30;1.00
2030;DHT22;1020;48.854;8.830;2023-02-02T10:14:20;5.40;1.00
2030;DHT22;1020;48.854;8.830;2023-02-02T10:16:52;5.40;1.00
2030;DHT22;1020;48.854;8.830;2023-02-02T10:19:20;5.40;1.00
2030;DHT22;1020;48.854;8.830;2023-02-02T10:22:01;5.40;1.00
2030;DHT22;1020;48.854;8.830;2023-02-02T10:24:31;5.40;1.00
2030;DHT22;1020;48.854;8.830;2023-02-02T10:27:02;5.40;1.00
2030;DHT22;1020;48.854;8.830;2023-02-02T10:29:34;5.40;1.00
2030;DHT22;1020;48.854;8.830;2023-02-02T10:32:11;5.50;99.90
2030;DHT22;1020;48.854;8.830;2023-02-02T10:34:42;5.50;1.00
2030;DHT22;1020;48.854;8.830;2023-02-02T10:37:20;5.50;99.90
2030;DHT22;1020;48.854;8.830;2023-02-02T10:40:12;5.50;99.90
2030;DHT22;1020;48.854;8.830;2023-02-02T10:42:55;5.60;99.90
2030;DHT22;1020;48.854;8.830;2023-02-02T10:45:50;5.60;99.90
2030;DHT22;1020;48.854;8.830;2023-02-02T10:48:18;5.60;99.90
2030;DHT22;1020;48.854;8.830;2023-02-02T10:50:48;5.60;99.90
2030;DHT22;1020;48.854;8.830;2023-02-02T10:53:19;5.60;99.90
2030;DHT22;1020;48.854;8.830;2023-02-02T10:55:51;5.60;99.90
2030;DHT22;1020;48.854;8.830;2023-02-02T10:58:23;5.60;99.90
2030;DHT22;1020;48.854;8.830;2023-02-02T11:00:53;5.60;99.90
2030;DHT22;1020;48.854;8.830;2023-02-02T11:03:22;5.60;99.90
2030;DHT22;1020;48.854;8.830;2023-02-02T11:05:50;5.60;99.90
2030;DHT22;1020;48.854;8.830;2023-02-02T11:08:39;5.70;99.90
2030;DHT22;1020;48.854;8.830;2023-02-02T11:11:11;5.70;99.90
2030;DHT22;1020;48.854;8.830;2023-02-02T11:13:45;5.70;99.90
2030;DHT22;1020;48.854;8.830;2023-02-02T11:16:19;5.90;93.50
2030;DHT22;1020;48.854;8.830;2023-02-02T11:18:47;6.00;1.00
2030;DHT22;1020;48.854;8.830;2023-02-02T11:21:19;6.10;1.00
2030;DHT22;1020;48.854;8.830;2023-02-02T11:23:56;6.10;99.90
2030;DHT22;1020;48.854;8.830;2023-02-02T11:26:24;6.10;99.90
2030;DHT22;1020;48.854;8.830;2023-02-02T11:28:53;6.10;99.90
2030;DHT22;1020;48.854;8.830;2023-02-02T11:31:34;6.10;99.90
2030;DHT22;1020;48.854;8.830;2023-02-02T11:34:12;6.00;30.10
2030;DHT22;1020;48.854;8.830;2023-02-02T11:37:00;6.10;99.90
2030;DHT22;1020;48.854;8.830;2023-02-02T11:39:29;6.10;15.10
2030;DHT22;1020;48.854;8.830;2023-02-02T11:42:00;6.00;99.90
2030;DHT22;1020;48.854;8.830;2023-02-02T11:44:29;6.00;1.00
2030;DHT22;1020;48.854;8.830;2023-02-02T11:46:59;6.00;1.00
2030;DHT22;1020;48.854;8.830;2023-02-02T11:49:26;5.80;1.00
2030;DHT22;1020;48.854;8.830;2023-02-02T11:51:58;5.70;29.00
2030;DHT22;1020;48.854;8.830;2023-02-02T11:54:29;5.70;99.90
2030;DHT22;1020;48.854;8.830;2023-02-02T11:56:59;7.20;1.00
2030;DHT22;1020;48.854;8.830;2023-02-02T11:59:30;3.40;1.00
2030;DHT22;1020;48.854;8.830;2023-02-02T12:02:23;5.50;1.00
2030;DHT22;1020;48.854;8.830;2023-02-02T12:04:51;5.40;1.00
2030;DHT22;1020;48.854;8.830;2023-02-02T12:07:23;5.40;1.00
2030;DHT22;1020;48.854;8.830;2023-02-02T12:09:52;5.30;1.00
2030;DHT22;1020;48.854;8.830;2023-02-02T12:12:32;5.20;46.10
2030;DHT22;1020;48.854;8.830;2023-02-02T12:15:10;5.20;77.70
2030;DHT22;1020;48.854;8.830;2023-02-02T12:17:41;5.10;99.90
2030;DHT22;1020;48.854;8.830;2023-02-02T12:20:15;5.10;99.90
2030;DHT22;1020;48.854;8.830;2023-02-02T12:23:09;5.10;99.90
2030;DHT22;1020;48.854;8.830;2023-02-02T12:25:53;5.10;99.90
2030;DHT22;1020;48.854;8.830;2023-02-02T12:28:34;5.10;99.90
2030;DHT22;1020;48.854;8.830;2023-02-02T12:31:08;5.10;99.90
2030;DHT22;1020;48.854;8.830;2023-02-02T12:33:48;5.10;99.90
2030;DHT22;1020;48.854;8.830;2023-02-02T12:36:25;5.00;99.90
2030;DHT22;1020;48.854;8.830;2023-02-02T12:39:22;5.00;99.90
2030;DHT22;1020;48.854;8.830;2023-02-02T12:42:15;5.00;99.90
2030;DHT22;1020;48.854;8.830;2023-02-02T12:44:55;5.00;99.90
2030;DHT22;1020;48.854;8.830;2023-02-02T12:47:35;5.00;99.90
2030;DHT22;1020;48.854;8.830;2023-02-02T12:50:15;5.00;99.90
2030;DHT22;1020;48.854;8.830;2023-02-02T12:52:58;5.00;99.90
2030;DHT22;1020;48.854;8.830;2023-02-02T12:55:35;5.00;99.90
2030;DHT22;1020;48.854;8.830;2023-02-02T12:58:14;5.00;99.90
2030;DHT22;1020;48.854;8.830;2023-02-02T13:01:00;5.10;99.90
2030;DHT22;1020;48.854;8.830;2023-02-02T13:03:38;5.10;99.90
2030;DHT22;1020;48.854;8.830;2023-02-02T13:06:23;5.10;99.90
2030;DHT22;1020;48.854;8.830;2023-02-02T13:08:57;5.10;99.90
2030;DHT22;1020;48.854;8.830;2023-02-02T13:11:34;5.10;99.90
2030;DHT22;1020;48.854;8.830;2023-02-02T13:14:08;5.10;99.90
2030;DHT22;1020;48.854;8.830;2023-02-02T13:16:39;5.20;99.90
2030;DHT22;1020;48.854;8.830;2023-02-02T13:19:11;5.20;99.90
2030;DHT22;1020;48.854;8.830;2023-02-02T13:21:40;5.20;99.90
2030;DHT22;1020;48.854;8.830;2023-02-02T13:24:13;5.20;99.90
2030;DHT22;1020;48.854;8.830;2023-02-02T13:26:42;5.20;99.90
2030;DHT22;1020;48.854;8.830;2023-02-02T13:29:18;5.30;99.90
2030;DHT22;1020;48.854;8.830;2023-02-02T13:31:53;7.40;99.90
2030;DHT22;1020;48.854;8.830;2023-02-02T13:34:24;5.30;99.90
2030;DHT22;1020;48.854;8.830;2023-02-02T13:36:55;5.30;99.90
2030;DHT22;1020;48.854;8.830;2023-02-02T13:39:33;5.40;99.90
2030;DHT22;1020;48.854;8.830;2023-02-02T13:42:02;5.40;99.90
2030;DHT22;1020;48.854;8.830;2023-02-02T13:44:47;5.40;97.60
2030;DHT22;1020;48.854;8.830;2023-02-02T13:47:20;5.50;99.90
2030;DHT22;1020;48.854;8.830;2023-02-02T13:49:53;5.60;76.40
2030;DHT22;1020;48.854;8.830;2023-02-02T13:52:40;5.60;40.40
2030;DHT22;1020;48.854;8.830;2023-02-02T13:55:33;7.70;58.20
2030;DHT22;1020;48.854;8.830;2023-02-02T13:58:26;5.70;28.30
2030;DHT22;1020;48.854;8.830;2023-02-02T14:01:00;5.70;18.90
2030;DHT22;1020;48.854;8.830;2023-02-02T14:03:32;5.80;1.00
2030;DHT22;1020;48.854;8.830;2023-02-02T14:06:06;5.80;1.00
2030;DHT22;1020;48.854;8.830;2023-02-02T14:08:33;5.80;1.00
2030;DHT22;1020;48.854;8.830;2023-02-02T14:11:02;5.80;1.00
2030;DHT22;1020;48.854;8.830;2023-02-02T14:13:36;7.10;1.00
2030;DHT22;1020;48.854;8.830;2023-02-02T14:16:48;5.90;1.00
2030;DHT22;1020;48.854;8.830;2023-02-02T14:19:16;5.80;1.00
2030;DHT22;1020;48.854;8.830;2023-02-02T14:24:53;5.90;1.00
2030;DHT22;1020;48.854;8.830;2023-02-02T14:27:54;5.90;1.00
2030;DHT22;1020;48.854;8.830;2023-02-02T14:30:26;5.80;1.00
2030;DHT22;1020;48.854;8.830;2023-02-02T14:33:25;5.90;1.00
2030;DHT22;1020;48.854;8.830;2023-02-02T14:35:59;5.80;1.00
2030;DHT22;1020;48.854;8.830;2023-02-02T14:38:53;5.90;1.00
2030;DHT22;1020;48.854;8.830;2023-02-02T14:41:32;5.90;1.00
2030;DHT22;1020;48.854;8.830;2023-02-02T14:44:21;5.90;1.00
2030;DHT22;1020;48.854;8.830;2023-02-02T14:46:48;5.90;1.00
2030;DHT22;1020;48.854;8.830;2023-02-02T14:49:19;5.90;1.00
2030;DHT22;1020;48.854;8.830;2023-02-02T14:51:59;5.90;99.90
2030;DHT22;1020;48.854;8.830;2023-02-02T14:54:36;5.90;1.00
2030;DHT22;1020;48.854;8.830;2023-02-02T14:57:20;5.90;99.90
2030;DHT22;1020;48.854;8.830;2023-02-02T14:59:48;5.90;99.90
2030;DHT22;1020;48.854;8.830;2023-02-02T15:02:19;5.90;99.90
2030;DHT22;1020;48.854;8.830;2023-02-02T15:04:49;5.90;99.90
2030;DHT22;1020;48.854;8.830;2023-02-02T15:07:36;5.90;99.90
2030;DHT22;1020;48.854;8.830;2023-02-02T15:10:11;5.90;99.90
2030;DHT22;1020;48.854;8.830;2023-02-02T15:12:40;5.90;99.90
2030;DHT22;1020;48.854;8.830;2023-02-02T15:15:15;5.90;99.90
2030;DHT22;1020;48.854;8.830;2023-02-02T15:17:59;5.90;99.90
2030;DHT22;1020;48.854;8.830;2023-02-02T15:20:32;5.90;99.90
2030;DHT22;1020;48.854;8.830;2023-02-02T15:23:03;5.90;99.90
2030;DHT22;1020;48.854;8.830;2023-02-02T15:25:34;5.90;99.90
2030;DHT22;1020;48.854;8.830;2023-02-02T15:28:08;6.00;99.90
2030;DHT22;1020;48.854;8.830;2023-02-02T15:30:41;5.90;97.00
2030;DHT22;1020;48.854;8.830;2023-02-02T15:33:21;5.90;1.00
2030;DHT22;1020;48.854;8.830;2023-02-02T15:35:51;6.00;1.80
2030;DHT22;1020;48.854;8.830;2023-02-02T15:38:20;6.00;99.90
2030;DHT22;1020;48.854;8.830;2023-02-02T15:40:48;5.90;99.90
2030;DHT22;1020;48.854;8.830;2023-02-02T15:43:26;5.90;52.90
2030;DHT22;1020;48.854;8.830;2023-02-02T15:46:00;6.00;1.00
2030;DHT22;1020;48.854;8.830;2023-02-02T15:49:13;7.70;99.90
2030;DHT22;1020;48.854;8.830;2023-02-02T15:52:00;5.90;99.90
2030;DHT22;1020;48.854;8.830;2023-02-02T15:54:30;5.90;99.80
2030;DHT22;1020;48.854;8.830;2023-02-02T15:56:58;4.40;99.90
2030;DHT22;1020;48.854;8.830;2023-02-02T15:59:27;5.90;99.90
2030;DHT22;1020;48.854;8.830;2023-02-02T16:02:18;5.90;99.90
2030;DHT22;1020;48.854;8.830;2023-02-02T16:04:47;5.90;99.90
2030;DHT22;1020;48.854;8.830;2023-02-02T16:07:18;5.90;99.90
2030;DHT22;1020;48.854;8.830;2023-02-02T16:09:46;7.00;99.90
2030;DHT22;1020;48.854;8.830;2023-02-02T16:12:16;5.90;99.90
2030;DHT22;1020;48.854;8.830;2023-02-02T16:14:56;5.90;99.90
2030;DHT22;1020;48.854;8.830;2023-02-02T16:17:27;4.30;99.90
2030;DHT22;1020;48.854;8.830;2023-02-02T16:19:57;5.90;99.90
2030;DHT22;1020;48.854;8.830;2023-02-02T16:22:27;5.90;99.90
2030;DHT22;1020;48.854;8.830;2023-02-02T16:24:58;5.90;99.90
2030;DHT22;1020;48.854;8.830;2023-02-02T16:27:28;5.90;99.90
2030;DHT22;1020;48.854;8.830;2023-02-02T16:29:59;5.80;99.90
2030;DHT22;1020;48.854;8.830;2023-02-02T16:32:29;4.90;99.90
2030;DHT22;1020;48.854;8.830;2023-02-02T16:34:57;5.80;1.00
2030;DHT22;1020;48.854;8.830;2023-02-02T16:37:27;5.80;1.00
2030;DHT22;1020;48.854;8.830;2023-02-02T16:40:14;8.10;1.00
2030;DHT22;1020;48.854;8.830;2023-02-02T16:42:42;5.60;1.00
2030;DHT22;1020;48.854;8.830;2023-02-02T16:45:37;5.60;1.00
2030;DHT22;1020;48.854;8.830;2023-02-02T16:48:27;3.50;1.00
2030;DHT22;1020;48.854;8.830;2023-02-02T16:51:08;5.60;1.00
2030;DHT22;1020;48.854;8.830;2023-02-02T16:53:37;8.10;1.00
2030;DHT22;1020;48.854;8.830;2023-02-02T16:56:04;5.60;1.00
2030;DHT22;1020;48.854;8.830;2023-02-02T16:58:34;5.60;1.00
2030;DHT22;1020;48.854;8.830;2023-02-02T17:01:07;5.60;1.00
2030;DHT22;1020;48.854;8.830;2023-02-02T17:03:37;5.60;1.00